Portada
METAR-TAF:

METAR-TAF

Aeroports :

Almagro, Espanya

latitud: 38-57-11N, longitud: 3-44-29W, altitud: 629 m

Observació

L'informe es va fer fa 1 hora i 2 minuts, a les 07:00 UTC
Vent 10 kt del Oest/Sud-Oest
Temperatura 23°C
Humitat 65%
Pressió 1017 hPa
Visibilitat 10 km o més
sense núvols per sota de 1500 mi sense presència de cumulonimbus.

METAR: LEAO 250700Z 25010KT CAVOK 23/16 Q1017

Hora: 10:02 (08:02 UTC)

Pronòstic

L'informe es va fer fa 3 hores i 2 minuts, a les 05:00 UTC
Pronòstic vàlid del 25 a les 06 UTC al 25 a les 15 UTC
Vent 5 kt amb direcció variable
Visibilitat 10 km o més
sense núvols per sota de 1500 mi sense presència de cumulonimbus.
Probabilitat 40% :
Temporalment
l' 25 a les 12 UTC al 25 a les 15 UTC
Escasses núvols a una alçada de 4000 ft, Cumulus congestus.

TAF: LEAO 250500Z 2506/2515 VRB05KT CAVOK PROB40 TEMPO 2512/2515 FEW040TCU

Observacions i pronòstics meteorològics de més de 4000 aeroports (METAR i TAF).

Les estacions disponibles són els punts grocs i vermells al mapa.

Posi el ratolí al punt desitjat per veure el nom de l'estació.

Feu clic per veure les observacions i els pronòstics meteorològics.

Per canviar el mapa: feu clic els botons verds amb una creu de color negre per apropar; al botó verd amb un guió per allunyar la imatge; o en les fletxes verdes per a mapes adjacents.


METAR-TAF: